sensor_id;sensor_type;location;lat;lon;timestamp;pressure;altitude;pressure_sealevel;temperature;humidity
43119;BME280;28729;49.838;8.650;2023-04-19T00:01:56;100552.59;;;10.80;96.92
43119;BME280;28729;49.838;8.650;2023-04-19T00:05:58;100548.88;;;10.75;98.00
43119;BME280;28729;49.838;8.650;2023-04-19T00:10:00;100544.88;;;10.70;97.45
43119;BME280;28729;49.838;8.650;2023-04-19T00:14:02;100539.34;;;10.70;98.39
43119;BME280;28729;49.838;8.650;2023-04-19T00:18:04;100545.50;;;10.72;97.92
43119;BME280;28729;49.838;8.650;2023-04-19T00:22:06;100551.25;;;10.71;97.60
43119;BME280;28729;49.838;8.650;2023-04-19T00:26:08;100542.59;;;10.67;97.36
43119;BME280;28729;49.838;8.650;2023-04-19T00:30:12;100533.94;;;10.64;97.92
43119;BME280;28729;49.838;8.650;2023-04-19T00:34:14;100543.66;;;10.66;97.92
43119;BME280;28729;49.838;8.650;2023-04-19T00:38:16;100532.91;;;10.65;97.48
43119;BME280;28729;49.838;8.650;2023-04-19T00:42:18;100531.44;;;10.62;98.49
43119;BME280;28729;49.838;8.650;2023-04-19T00:46:20;100533.56;;;10.60;99.43
43119;BME280;28729;49.838;8.650;2023-04-19T00:50:23;100532.13;;;10.58;99.83
43119;BME280;28729;49.838;8.650;2023-04-19T00:54:25;100535.72;;;10.58;99.46
43119;BME280;28729;49.838;8.650;2023-04-19T00:58:29;100532.97;;;10.58;99.46
43119;BME280;28729;49.838;8.650;2023-04-19T01:02:32;100531.91;;;10.59;98.96
43119;BME280;28729;49.838;8.650;2023-04-19T01:06:34;100518.34;;;10.58;99.09
43119;BME280;28729;49.838;8.650;2023-04-19T01:10:36;100520.94;;;10.53;100.00
43119;BME280;28729;49.838;8.650;2023-04-19T01:14:38;100519.28;;;10.52;100.00
43119;BME280;28729;49.838;8.650;2023-04-19T01:18:40;100512.16;;;10.44;100.00
43119;BME280;28729;49.838;8.650;2023-04-19T01:22:42;100511.78;;;10.40;100.00
43119;BME280;28729;49.838;8.650;2023-04-19T01:26:44;100516.47;;;10.40;100.00
43119;BME280;28729;49.838;8.650;2023-04-19T01:30:46;100508.19;;;10.40;100.00
43119;BME280;28729;49.838;8.650;2023-04-19T01:34:48;100505.69;;;10.38;100.00
43119;BME280;28729;49.838;8.650;2023-04-19T01:38:49;100498.34;;;10.32;100.00
43119;BME280;28729;49.838;8.650;2023-04-19T01:42:51;100487.19;;;10.27;100.00
43119;BME280;28729;49.838;8.650;2023-04-19T01:46:53;100491.41;;;10.23;100.00
43119;BME280;28729;49.838;8.650;2023-04-19T01:50:55;100494.41;;;10.21;100.00
43119;BME280;28729;49.838;8.650;2023-04-19T01:54:57;100488.53;;;10.18;100.00
43119;BME280;28729;49.838;8.650;2023-04-19T01:58:59;100485.84;;;10.11;100.00
43119;BME280;28729;49.838;8.650;2023-04-19T02:03:01;100467.72;;;10.03;100.00
43119;BME280;28729;49.838;8.650;2023-04-19T02:07:03;100463.59;;;9.94;100.00
43119;BME280;28729;49.838;8.650;2023-04-19T02:11:09;100466.19;;;9.89;100.00
43119;BME280;28729;49.838;8.650;2023-04-19T02:15:11;100466.19;;;9.89;100.00
43119;BME280;28729;49.838;8.650;2023-04-19T02:19:12;100465.72;;;9.92;100.00
43119;BME280;28729;49.838;8.650;2023-04-19T02:23:14;100458.31;;;9.93;100.00
43119;BME280;28729;49.838;8.650;2023-04-19T02:27:16;100460.00;;;9.94;100.00
43119;BME280;28729;49.838;8.650;2023-04-19T02:31:18;100454.09;;;9.90;100.00
43119;BME280;28729;49.838;8.650;2023-04-19T02:35:20;100460.69;;;9.89;100.00
43119;BME280;28729;49.838;8.650;2023-04-19T02:39:21;100455.66;;;9.86;100.00
43119;BME280;28729;49.838;8.650;2023-04-19T02:43:28;100449.53;;;9.84;100.00
43119;BME280;28729;49.838;8.650;2023-04-19T02:47:30;100448.09;;;9.81;100.00
43119;BME280;28729;49.838;8.650;2023-04-19T02:51:31;100444.94;;;9.78;100.00
43119;BME280;28729;49.838;8.650;2023-04-19T02:55:33;100448.38;;;9.73;100.00
43119;BME280;28729;49.838;8.650;2023-04-19T02:59:41;100433.00;;;9.66;100.00
43119;BME280;28729;49.838;8.650;2023-04-19T03:03:43;100434.53;;;9.62;100.00
43119;BME280;28729;49.838;8.650;2023-04-19T03:07:45;100430.53;;;9.57;100.00
43119;BME280;28729;49.838;8.650;2023-04-19T03:11:47;100424.06;;;9.52;100.00
43119;BME280;28729;49.838;8.650;2023-04-19T03:15:51;100425.59;;;9.48;100.00
43119;BME280;28729;49.838;8.650;2023-04-19T03:19:56;100417.56;;;9.46;100.00
43119;BME280;28729;49.838;8.650;2023-04-19T03:23:58;100417.41;;;9.41;100.00
43119;BME280;28729;49.838;8.650;2023-04-19T03:28:01;100418.94;;;9.37;100.00
43119;BME280;28729;49.838;8.650;2023-04-19T03:32:32;100409.44;;;9.33;100.00
43119;BME280;28729;49.838;8.650;2023-04-19T03:36:34;100406.53;;;9.28;100.00
43119;BME280;28729;49.838;8.650;2023-04-19T03:40:36;100400.06;;;9.22;100.00
43119;BME280;28729;49.838;8.650;2023-04-19T03:44:40;100389.97;;;9.16;100.00
43119;BME280;28729;49.838;8.650;2023-04-19T03:48:46;100391.25;;;9.13;100.00
43119;BME280;28729;49.838;8.650;2023-04-19T03:52:48;100384.28;;;9.11;100.00
43119;BME280;28729;49.838;8.650;2023-04-19T03:56:50;100385.56;;;9.08;100.00
43119;BME280;28729;49.838;8.650;2023-04-19T04:00:52;100382.59;;;9.10;100.00
43119;BME280;28729;49.838;8.650;2023-04-19T04:04:54;100394.91;;;9.07;100.00
43119;BME280;28729;49.838;8.650;2023-04-19T04:08:57;100390.53;;;9.00;100.00
43119;BME280;28729;49.838;8.650;2023-04-19T04:12:59;100396.53;;;8.90;100.00
43119;BME280;28729;49.838;8.650;2023-04-19T04:17:11;100399.38;;;8.77;100.00
43119;BME280;28729;49.838;8.650;2023-04-19T04:21:21;100400.97;;;8.66;100.00
43119;BME280;28729;49.838;8.650;2023-04-19T04:25:27;100401.88;;;8.53;100.00
43119;BME280;28729;49.838;8.650;2023-04-19T04:29:31;100401.75;;;8.41;100.00
43119;BME280;28729;49.838;8.650;2023-04-19T04:33:38;100398.63;;;8.31;100.00
43119;BME280;28729;49.838;8.650;2023-04-19T04:37:46;100403.53;;;8.22;100.00
43119;BME280;28729;49.838;8.650;2023-04-19T04:41:49;100411.13;;;8.20;100.00
43119;BME280;28729;49.838;8.650;2023-04-19T04:45:53;100417.47;;;8.21;100.00
43119;BME280;28729;49.838;8.650;2023-04-19T04:49:57;100410.91;;;8.22;100.00
43119;BME280;28729;49.838;8.650;2023-04-19T04:54:00;100412.19;;;8.19;100.00
43119;BME280;28729;49.838;8.650;2023-04-19T04:58:02;100406.50;;;8.14;100.00
43119;BME280;28729;49.838;8.650;2023-04-19T05:02:25;100405.03;;;8.12;100.00
43119;BME280;28729;49.838;8.650;2023-04-19T05:06:27;100397.03;;;8.10;100.00
43119;BME280;28729;49.838;8.650;2023-04-19T05:10:29;100400.22;;;8.07;100.00
43119;BME280;28729;49.838;8.650;2023-04-19T05:14:32;100390.94;;;8.08;100.00
43119;BME280;28729;49.838;8.650;2023-04-19T05:18:35;100387.94;;;8.16;100.00
43119;BME280;28729;49.838;8.650;2023-04-19T05:22:38;100391.06;;;8.20;100.00
43119;BME280;28729;49.838;8.650;2023-04-19T05:26:43;100395.47;;;8.28;100.00
43119;BME280;28729;49.838;8.650;2023-04-19T05:30:46;100389.47;;;8.44;100.00
43119;BME280;28729;49.838;8.650;2023-04-19T05:34:50;100388.50;;;8.63;100.00
43119;BME280;28729;49.838;8.650;2023-04-19T05:38:52;100381.72;;;8.91;100.00
43119;BME280;28729;49.838;8.650;2023-04-19T05:42:57;100379.34;;;9.20;100.00
43119;BME280;28729;49.838;8.650;2023-04-19T05:46:59;100379.06;;;9.46;100.00
43119;BME280;28729;49.838;8.650;2023-04-19T05:51:23;100388.53;;;9.69;100.00
43119;BME280;28729;49.838;8.650;2023-04-19T05:55:44;100371.31;;;9.92;100.00
43119;BME280;28729;49.838;8.650;2023-04-19T05:59:50;100380.34;;;10.11;100.00
43119;BME280;28729;49.838;8.650;2023-04-19T06:03:56;100377.59;;;10.29;100.00
43119;BME280;28729;49.838;8.650;2023-04-19T06:08:00;100378.59;;;10.46;100.00
43119;BME280;28729;49.838;8.650;2023-04-19T06:12:08;100379.94;;;10.56;100.00
43119;BME280;28729;49.838;8.650;2023-04-19T06:16:10;100388.72;;;10.64;100.00
43119;BME280;28729;49.838;8.650;2023-04-19T06:20:14;100383.69;;;10.73;100.00
43119;BME280;28729;49.838;8.650;2023-04-19T06:24:16;100391.41;;;10.83;100.00
43119;BME280;28729;49.838;8.650;2023-04-19T06:28:19;100386.63;;;11.02;100.00
43119;BME280;28729;49.838;8.650;2023-04-19T06:32:21;100386.38;;;11.15;100.00
43119;BME280;28729;49.838;8.650;2023-04-19T06:36:22;100386.28;;;11.22;100.00
43119;BME280;28729;49.838;8.650;2023-04-19T06:40:27;100388.91;;;11.40;100.00
43119;BME280;28729;49.838;8.650;2023-04-19T06:44:31;100394.13;;;11.77;100.00
43119;BME280;28729;49.838;8.650;2023-04-19T06:48:33;100381.91;;;12.13;100.00
43119;BME280;28729;49.838;8.650;2023-04-19T06:52:39;100389.75;;;12.33;100.00
43119;BME280;28729;49.838;8.650;2023-04-19T06:56:45;100395.03;;;12.35;100.00
43119;BME280;28729;49.838;8.650;2023-04-19T07:00:48;100393.44;;;12.39;100.00
43119;BME280;28729;49.838;8.650;2023-04-19T07:04:50;100392.50;;;12.33;100.00
43119;BME280;28729;49.838;8.650;2023-04-19T07:08:53;100392.28;;;12.35;100.00
43119;BME280;28729;49.838;8.650;2023-04-19T07:12:55;100390.88;;;12.49;100.00
43119;BME280;28729;49.838;8.650;2023-04-19T07:16:59;100394.22;;;12.51;100.00
43119;BME280;28729;49.838;8.650;2023-04-19T07:21:01;100391.97;;;12.48;100.00
43119;BME280;28729;49.838;8.650;2023-04-19T07:25:06;100379.25;;;12.47;97.94
43119;BME280;28729;49.838;8.650;2023-04-19T07:29:10;100381.00;;;12.70;97.79
43119;BME280;28729;49.838;8.650;2023-04-19T07:33:14;100376.19;;;12.94;96.78
43119;BME280;28729;49.838;8.650;2023-04-19T07:37:16;100379.34;;;13.03;93.32
43119;BME280;28729;49.838;8.650;2023-04-19T07:41:18;100364.06;;;13.17;92.40
43119;BME280;28729;49.838;8.650;2023-04-19T07:45:20;100363.84;;;13.18;91.87
43119;BME280;28729;49.838;8.650;2023-04-19T07:49:22;100369.97;;;13.04;88.61
43119;BME280;28729;49.838;8.650;2023-04-19T07:53:27;100367.63;;;13.12;88.95
43119;BME280;28729;49.838;8.650;2023-04-19T07:57:29;100360.66;;;13.10;86.54
43119;BME280;28729;49.838;8.650;2023-04-19T08:01:31;100368.63;;;12.89;85.44
43119;BME280;28729;49.838;8.650;2023-04-19T08:05:34;100362.69;;;12.81;85.62
43119;BME280;28729;49.838;8.650;2023-04-19T08:09:37;100363.09;;;12.72;85.45
43119;BME280;28729;49.838;8.650;2023-04-19T08:13:40;100360.38;;;12.61;83.96
43119;BME280;28729;49.838;8.650;2023-04-19T08:18:05;100359.25;;;12.73;84.73
43119;BME280;28729;49.838;8.650;2023-04-19T08:22:08;100348.84;;;12.97;83.20
43119;BME280;28729;49.838;8.650;2023-04-19T08:26:13;100357.47;;;13.18;81.63
43119;BME280;28729;49.838;8.650;2023-04-19T08:30:16;100351.75;;;13.41;81.21
43119;BME280;28729;49.838;8.650;2023-04-19T08:34:20;100354.94;;;13.72;79.62
43119;BME280;28729;49.838;8.650;2023-04-19T08:38:23;100344.19;;;14.03;74.66
43119;BME280;28729;49.838;8.650;2023-04-19T08:42:25;100341.06;;;13.94;74.56
43119;BME280;28729;49.838;8.650;2023-04-19T08:46:37;100343.50;;;13.90;73.85
43119;BME280;28729;49.838;8.650;2023-04-19T08:50:41;100340.75;;;14.18;75.73
43119;BME280;28729;49.838;8.650;2023-04-19T08:55:06;100331.53;;;14.34;74.68
43119;BME280;28729;49.838;8.650;2023-04-19T08:59:09;100327.91;;;14.61;72.40
43119;BME280;28729;49.838;8.650;2023-04-19T09:03:20;100334.81;;;14.90;71.54
43119;BME280;28729;49.838;8.650;2023-04-19T09:07:24;100337.13;;;15.03;68.73
43119;BME280;28729;49.838;8.650;2023-04-19T09:11:36;100325.19;;;15.03;65.76
43119;BME280;28729;49.838;8.650;2023-04-19T09:15:41;100334.69;;;15.12;67.87
43119;BME280;28729;49.838;8.650;2023-04-19T09:19:48;100332.09;;;15.00;65.79
43119;BME280;28729;49.838;8.650;2023-04-19T09:23:50;100328.75;;;14.98;67.42
43119;BME280;28729;49.838;8.650;2023-04-19T09:27:53;100322.47;;;15.08;65.83
43119;BME280;28729;49.838;8.650;2023-04-19T09:31:57;100315.03;;;15.19;63.76
43119;BME280;28729;49.838;8.650;2023-04-19T09:36:00;100317.63;;;14.93;63.94
43119;BME280;28729;49.838;8.650;2023-04-19T09:40:22;100308.34;;;15.20;64.90
43119;BME280;28729;49.838;8.650;2023-04-19T09:44:26;100308.03;;;15.59;64.10
43119;BME280;28729;49.838;8.650;2023-04-19T09:48:31;100294.19;;;15.69;61.07
43119;BME280;28729;49.838;8.650;2023-04-19T09:52:33;100287.03;;;15.93;60.31
43119;BME280;28729;49.838;8.650;2023-04-19T09:56:36;100280.69;;;16.08;57.14
43119;BME280;28729;49.838;8.650;2023-04-19T10:00:40;100285.97;;;16.05;56.90
43119;BME280;28729;49.838;8.650;2023-04-19T10:04:54;100280.72;;;16.18;57.02
43119;BME280;28729;49.838;8.650;2023-04-19T10:09:21;100267.94;;;16.74;56.24
43119;BME280;28729;49.838;8.650;2023-04-19T10:13:23;100264.28;;;17.04;51.47
43119;BME280;28729;49.838;8.650;2023-04-19T10:17:27;100252.66;;;16.87;52.42
43119;BME280;28729;49.838;8.650;2023-04-19T10:21:29;100262.41;;;16.48;50.72
43119;BME280;28729;49.838;8.650;2023-04-19T10:25:36;100254.03;;;16.63;52.07
43119;BME280;28729;49.838;8.650;2023-04-19T10:29:59;100248.66;;;17.23;50.94
43119;BME280;28729;49.838;8.650;2023-04-19T10:34:01;100245.88;;;17.13;45.89
43119;BME280;28729;49.838;8.650;2023-04-19T10:38:12;100248.97;;;17.06;46.20
43119;BME280;28729;49.838;8.650;2023-04-19T10:42:20;100232.06;;;16.82;47.37
43119;BME280;28729;49.838;8.650;2023-04-19T10:50:25;100214.84;;;17.50;44.77
43119;BME280;28729;49.838;8.650;2023-04-19T10:54:33;100221.41;;;17.10;43.20
43119;BME280;28729;49.838;8.650;2023-04-19T11:03:50;100202.66;;;17.31;42.40
43119;BME280;28729;49.838;8.650;2023-04-19T11:07:52;100199.03;;;17.30;42.19
43119;BME280;28729;49.838;8.650;2023-04-19T11:12:05;100197.50;;;16.94;42.21
43119;BME280;28729;49.838;8.650;2023-04-19T11:16:11;100196.16;;;16.81;43.64
43119;BME280;28729;49.838;8.650;2023-04-19T11:20:13;100194.69;;;17.09;43.40
43119;BME280;28729;49.838;8.650;2023-04-19T11:24:15;100195.56;;;17.04;42.70
43119;BME280;28729;49.838;8.650;2023-04-19T11:28:19;100182.72;;;17.08;42.46
43119;BME280;28729;49.838;8.650;2023-04-19T11:32:22;100177.91;;;17.24;42.12
43119;BME280;28729;49.838;8.650;2023-04-19T11:36:25;100169.59;;;17.14;42.45
43119;BME280;28729;49.838;8.650;2023-04-19T11:40:27;100158.78;;;17.07;42.02
43119;BME280;28729;49.838;8.650;2023-04-19T11:44:32;100147.75;;;17.42;40.37
43119;BME280;28729;49.838;8.650;2023-04-19T11:48:37;100146.66;;;17.38;40.64
43119;BME280;28729;49.838;8.650;2023-04-19T11:52:48;100122.56;;;17.57;40.22
43119;BME280;28729;49.838;8.650;2023-04-19T11:57:05;100118.16;;;17.51;39.41
43119;BME280;28729;49.838;8.650;2023-04-19T12:01:18;100129.97;;;17.77;39.95
43119;BME280;28729;49.838;8.650;2023-04-19T12:05:22;100121.41;;;18.37;39.69
43119;BME280;28729;49.838;8.650;2023-04-19T12:09:35;100114.22;;;18.84;36.64
43119;BME280;28729;49.838;8.650;2023-04-19T12:13:37;100115.28;;;19.31;35.34
43119;BME280;28729;49.838;8.650;2023-04-19T12:18:00;100121.78;;;20.02;34.63
43119;BME280;28729;49.838;8.650;2023-04-19T12:22:16;100106.84;;;20.39;32.16
43119;BME280;28729;49.838;8.650;2023-04-19T12:26:20;100103.59;;;20.65;32.05
43119;BME280;28729;49.838;8.650;2023-04-19T12:30:24;100097.56;;;21.13;32.18
43119;BME280;28729;49.838;8.650;2023-04-19T12:34:33;100081.53;;;21.41;30.16
43119;BME280;28729;49.838;8.650;2023-04-19T12:38:35;100090.78;;;21.78;28.92
43119;BME280;28729;49.838;8.650;2023-04-19T12:42:39;100091.44;;;22.51;28.41
43119;BME280;28729;49.838;8.650;2023-04-19T12:46:46;100086.94;;;21.74;28.36
43119;BME280;28729;49.838;8.650;2023-04-19T12:50:48;100095.63;;;22.08;28.46
43119;BME280;28729;49.838;8.650;2023-04-19T12:54:50;100083.16;;;22.86;25.99
43119;BME280;28729;49.838;8.650;2023-04-19T12:58:56;100082.81;;;23.53;25.08
43119;BME280;28729;49.838;8.650;2023-04-19T13:02:57;100080.81;;;23.45;24.61
43119;BME280;28729;49.838;8.650;2023-04-19T13:07:03;100078.75;;;23.02;24.22
43119;BME280;28729;49.838;8.650;2023-04-19T13:11:05;100083.91;;;23.09;24.56
43119;BME280;28729;49.838;8.650;2023-04-19T13:15:07;100083.84;;;23.75;24.05
43119;BME280;28729;49.838;8.650;2023-04-19T13:19:12;100068.41;;;24.16;23.73
43119;BME280;28729;49.838;8.650;2023-04-19T13:23:14;100060.19;;;24.87;22.86
43119;BME280;28729;49.838;8.650;2023-04-19T13:27:16;100048.75;;;24.54;21.04
43119;BME280;28729;49.838;8.650;2023-04-19T13:31:19;100051.19;;;24.64;21.32
43119;BME280;28729;49.838;8.650;2023-04-19T13:35:21;100056.66;;;24.05;21.13
43119;BME280;28729;49.838;8.650;2023-04-19T13:39:23;100057.63;;;24.00;21.37
43119;BME280;28729;49.838;8.650;2023-04-19T13:43:26;100042.22;;;24.15;21.10
43119;BME280;28729;49.838;8.650;2023-04-19T13:47:28;100032.28;;;24.65;20.10
43119;BME280;28729;49.838;8.650;2023-04-19T13:51:30;100047.09;;;25.12;20.29
43119;BME280;28729;49.838;8.650;2023-04-19T13:55:51;100028.00;;;24.59;20.51
43119;BME280;28729;49.838;8.650;2023-04-19T13:59:53;100035.13;;;23.13;21.27
43119;BME280;28729;49.838;8.650;2023-04-19T14:03:57;100025.63;;;22.35;21.73
43119;BME280;28729;49.838;8.650;2023-04-19T14:08:01;100014.50;;;21.31;23.41
43119;BME280;28729;49.838;8.650;2023-04-19T14:12:08;100019.03;;;20.90;23.95
43119;BME280;28729;49.838;8.650;2023-04-19T14:16:10;100009.72;;;20.95;24.05
43119;BME280;28729;49.838;8.650;2023-04-19T14:20:12;100001.47;;;20.62;23.26
43119;BME280;28729;49.838;8.650;2023-04-19T14:24:15;99994.88;;;20.25;23.54
43119;BME280;28729;49.838;8.650;2023-04-19T14:28:19;99995.88;;;19.88;23.79
43119;BME280;28729;49.838;8.650;2023-04-19T14:32:23;100014.53;;;19.41;24.13
43119;BME280;28729;49.838;8.650;2023-04-19T14:36:27;99996.66;;;19.04;24.08
43119;BME280;28729;49.838;8.650;2023-04-19T14:40:29;99992.94;;;18.47;23.73
43119;BME280;28729;49.838;8.650;2023-04-19T14:44:31;99996.03;;;18.21;24.52
43119;BME280;28729;49.838;8.650;2023-04-19T14:48:33;100001.28;;;18.47;25.03
43119;BME280;28729;49.838;8.650;2023-04-19T14:52:34;99996.03;;;18.45;24.48
43119;BME280;28729;49.838;8.650;2023-04-19T14:56:37;99994.84;;;18.95;25.30
43119;BME280;28729;49.838;8.650;2023-04-19T15:00:39;99991.28;;;19.27;24.74
43119;BME280;28729;49.838;8.650;2023-04-19T15:04:42;100001.78;;;18.54;25.24
43119;BME280;28729;49.838;8.650;2023-04-19T15:08:45;99994.63;;;17.95;25.83
43119;BME280;28729;49.838;8.650;2023-04-19T15:12:49;99998.22;;;17.66;26.66
43119;BME280;28729;49.838;8.650;2023-04-19T15:16:51;99987.19;;;17.56;26.70
43119;BME280;28729;49.838;8.650;2023-04-19T15:20:53;99990.50;;;17.24;25.46
43119;BME280;28729;49.838;8.650;2023-04-19T15:24:54;99994.53;;;17.02;26.07
43119;BME280;28729;49.838;8.650;2023-04-19T15:28:57;99986.63;;;16.70;26.58
43119;BME280;28729;49.838;8.650;2023-04-19T15:32:58;99983.72;;;16.36;27.06
43119;BME280;28729;49.838;8.650;2023-04-19T15:37:00;99987.16;;;16.07;27.50
43119;BME280;28729;49.838;8.650;2023-04-19T15:41:03;99999.69;;;15.79;27.32
43119;BME280;28729;49.838;8.650;2023-04-19T15:45:05;99993.88;;;15.65;27.37
43119;BME280;28729;49.838;8.650;2023-04-19T15:49:08;99993.03;;;15.75;27.93
43119;BME280;28729;49.838;8.650;2023-04-19T15:53:10;99998.53;;;16.21;27.27
43119;BME280;28729;49.838;8.650;2023-04-19T15:57:21;99993.84;;;16.71;26.44
43119;BME280;28729;49.838;8.650;2023-04-19T16:01:22;99990.31;;;17.79;27.17
43119;BME280;28729;49.838;8.650;2023-04-19T16:05:30;100002.38;;;18.75;25.72
43119;BME280;28729;49.838;8.650;2023-04-19T16:09:31;100008.50;;;18.53;25.64
43119;BME280;28729;49.838;8.650;2023-04-19T16:13:34;99999.44;;;18.61;25.28
43119;BME280;28729;49.838;8.650;2023-04-19T16:17:36;100003.53;;;18.93;25.69
43119;BME280;28729;49.838;8.650;2023-04-19T16:21:38;100004.56;;;18.54;24.48
43119;BME280;28729;49.838;8.650;2023-04-19T16:25:40;100004.50;;;18.83;24.35
43119;BME280;28729;49.838;8.650;2023-04-19T16:29:42;100006.72;;;19.76;24.13
43119;BME280;28729;49.838;8.650;2023-04-19T16:33:44;100011.28;;;19.53;24.46
43119;BME280;28729;49.838;8.650;2023-04-19T16:37:46;100007.13;;;18.75;25.02
43119;BME280;28729;49.838;8.650;2023-04-19T16:41:48;100009.59;;;18.52;25.57
43119;BME280;28729;49.838;8.650;2023-04-19T16:45:50;100005.66;;;19.01;25.87
43119;BME280;28729;49.838;8.650;2023-04-19T16:49:52;100009.19;;;18.40;25.49
43119;BME280;28729;49.838;8.650;2023-04-19T16:53:56;100006.03;;;17.98;25.62
43119;BME280;28729;49.838;8.650;2023-04-19T16:57:58;100001.97;;;17.51;26.65
43119;BME280;28729;49.838;8.650;2023-04-19T17:01:59;100001.44;;;17.10;27.13
43119;BME280;28729;49.838;8.650;2023-04-19T17:06:03;99999.28;;;17.41;27.22
43119;BME280;28729;49.838;8.650;2023-04-19T17:10:06;99997.34;;;17.71;26.51
43119;BME280;28729;49.838;8.650;2023-04-19T17:14:08;99992.25;;;17.09;26.48
43119;BME280;28729;49.838;8.650;2023-04-19T17:18:10;99992.50;;;16.63;27.75
43119;BME280;28729;49.838;8.650;2023-04-19T17:22:13;99999.72;;;16.64;28.42
43119;BME280;28729;49.838;8.650;2023-04-19T17:26:15;99988.81;;;16.13;28.33
43119;BME280;28729;49.838;8.650;2023-04-19T17:30:17;100001.34;;;15.49;29.64
43119;BME280;28729;49.838;8.650;2023-04-19T17:34:19;99997.69;;;14.98;29.79
43119;BME280;28729;49.838;8.650;2023-04-19T17:38:21;99999.56;;;14.67;30.71
43119;BME280;28729;49.838;8.650;2023-04-19T17:42:23;100007.44;;;15.06;29.86
43119;BME280;28729;49.838;8.650;2023-04-19T17:46:25;100004.38;;;15.07;29.96
43119;BME280;28729;49.838;8.650;2023-04-19T17:50:27;100007.41;;;14.95;30.90
43119;BME280;28729;49.838;8.650;2023-04-19T17:54:30;100012.09;;;14.90;30.67
43119;BME280;28729;49.838;8.650;2023-04-19T17:58:32;100016.81;;;14.79;31.38
43119;BME280;28729;49.838;8.650;2023-04-19T18:02:38;100020.72;;;14.30;32.18
43119;BME280;28729;49.838;8.650;2023-04-19T18:06:41;100013.34;;;13.61;33.93
43119;BME280;28729;49.838;8.650;2023-04-19T18:10:45;100017.75;;;12.98;34.11
43119;BME280;28729;49.838;8.650;2023-04-19T18:14:48;100019.34;;;12.45;34.08
43119;BME280;28729;49.838;8.650;2023-04-19T18:18:50;100025.72;;;12.06;35.17
43119;BME280;28729;49.838;8.650;2023-04-19T18:22:52;100027.94;;;11.71;36.82
43119;BME280;28729;49.838;8.650;2023-04-19T18:26:55;100034.78;;;11.34;38.19
43119;BME280;28729;49.838;8.650;2023-04-19T18:30:59;100033.16;;;11.05;39.00
43119;BME280;28729;49.838;8.650;2023-04-19T18:35:02;100040.25;;;10.72;39.98
43119;BME280;28729;49.838;8.650;2023-04-19T18:39:10;100039.25;;;10.38;40.03
43119;BME280;28729;49.838;8.650;2023-04-19T18:43:14;100036.28;;;10.16;40.85
43119;BME280;28729;49.838;8.650;2023-04-19T18:47:16;100039.88;;;9.93;41.55
43119;BME280;28729;49.838;8.650;2023-04-19T18:51:19;100043.50;;;9.70;41.91
43119;BME280;28729;49.838;8.650;2023-04-19T18:55:21;100040.81;;;9.51;42.98
43119;BME280;28729;49.838;8.650;2023-04-19T18:59:24;100041.16;;;9.31;44.26
43119;BME280;28729;49.838;8.650;2023-04-19T19:03:28;100052.81;;;9.15;44.31
43119;BME280;28729;49.838;8.650;2023-04-19T19:07:52;100054.81;;;8.96;44.26
43119;BME280;28729;49.838;8.650;2023-04-19T19:11:56;100062.63;;;8.81;44.52
43119;BME280;28729;49.838;8.650;2023-04-19T19:15:58;100050.28;;;8.72;45.32
43119;BME280;28729;49.838;8.650;2023-04-19T19:20:00;100051.06;;;8.60;44.72
43119;BME280;28729;49.838;8.650;2023-04-19T19:24:03;100061.16;;;8.48;44.39
43119;BME280;28729;49.838;8.650;2023-04-19T19:28:07;100060.22;;;8.36;45.18
43119;BME280;28729;49.838;8.650;2023-04-19T19:32:10;100049.38;;;8.22;45.77
43119;BME280;28729;49.838;8.650;2023-04-19T19:36:13;100057.91;;;8.14;45.75
43119;BME280;28729;49.838;8.650;2023-04-19T19:40:16;100059.06;;;8.07;46.21
43119;BME280;28729;49.838;8.650;2023-04-19T19:44:24;100058.50;;;7.98;46.02
43119;BME280;28729;49.838;8.650;2023-04-19T19:48:27;100068.09;;;7.89;46.32
43119;BME280;28729;49.838;8.650;2023-04-19T19:52:31;100057.59;;;7.86;46.53
43119;BME280;28729;49.838;8.650;2023-04-19T19:56:33;100057.41;;;7.81;45.86
43119;BME280;28729;49.838;8.650;2023-04-19T20:00:35;100060.38;;;7.79;46.13
43119;BME280;28729;49.838;8.650;2023-04-19T20:04:47;100064.44;;;7.76;46.43
43119;BME280;28729;49.838;8.650;2023-04-19T20:08:49;100062.13;;;7.73;45.99
43119;BME280;28729;49.838;8.650;2023-04-19T20:12:52;100068.94;;;7.64;46.48
43119;BME280;28729;49.838;8.650;2023-04-19T20:16:57;100069.19;;;7.63;46.30
43119;BME280;28729;49.838;8.650;2023-04-19T20:21:02;100070.47;;;7.60;46.34
43119;BME280;28729;49.838;8.650;2023-04-19T20:25:05;100075.31;;;7.58;46.59
43119;BME280;28729;49.838;8.650;2023-04-19T20:29:07;100077.47;;;7.56;47.47
43119;BME280;28729;49.838;8.650;2023-04-19T20:33:10;100071.59;;;7.52;48.07
43119;BME280;28729;49.838;8.650;2023-04-19T20:37:12;100071.88;;;7.44;49.03
43119;BME280;28729;49.838;8.650;2023-04-19T20:41:14;100079.53;;;7.36;48.98
43119;BME280;28729;49.838;8.650;2023-04-19T20:45:16;100071.56;;;7.27;49.40
43119;BME280;28729;49.838;8.650;2023-04-19T20:49:19;100071.38;;;7.22;50.23
43119;BME280;28729;49.838;8.650;2023-04-19T20:53:22;100069.09;;;7.19;50.29
43119;BME280;28729;49.838;8.650;2023-04-19T20:57:24;100074.41;;;7.14;52.59
43119;BME280;28729;49.838;8.650;2023-04-19T21:01:26;100070.66;;;7.08;52.80
43119;BME280;28729;49.838;8.650;2023-04-19T21:05:29;100055.69;;;7.04;53.33
43119;BME280;28729;49.838;8.650;2023-04-19T21:09:30;100063.53;;;7.01;54.50
43119;BME280;28729;49.838;8.650;2023-04-19T21:13:33;100056.19;;;6.95;54.45
43119;BME280;28729;49.838;8.650;2023-04-19T21:17:35;100058.53;;;6.91;55.39
43119;BME280;28729;49.838;8.650;2023-04-19T21:21:37;100062.97;;;6.85;55.68
43119;BME280;28729;49.838;8.650;2023-04-19T21:25:39;100058.59;;;6.78;56.46